Terminal Aerodrome Forecast
Issued by NWS

Home | Current Version | Previous Version | Text Only | Print | Product List | Glossary On
Versions: 1 2 3 4 5 6 7 8 9 10 11 12 13 14 15 16 17 18 19 20 21 22 23 24 25 26 27 28 29 30 31 32 33 34 35 36 37 38
796
FTUS45 KSLC 280539
TAFLGU
TAF
KLGU 280539Z 2806/2906 VRB05KT P6SM SCT040 BKN080
     FM280800 VRB04KT P6SM VCSH SCT020 BKN040
     FM281200 33008KT 2SM -SHSN BR SCT007 BKN015
     FM282000 34015G22KT P6SM VCSH SCT020 BKN040
     FM290200 05011KT P6SM SCT030 BKN060=

USA.gov is the U.S. government's official web portal to all federal, state and local government web resources and services.